Time,TemperatureF,DewpointF,PressureIn,WindDirection,WindDirectionDegrees,WindSpeedMPH,WindSpeedGustMPH,Humidity,HourlyPrecipIn,Conditions,Clouds,dailyrainin,SoftwareType,DateUTC
2013-03-21 00:00:00,21.9,19.9,29.47,SW,214,9.0,9.0,92,0.00,,,0.00,Wunderground v.1.15,2013-03-21 04:00:00,
2013-03-21 00:09:00,21.7,19.7,29.47,SW,227,8.0,8.0,92,0.00,,,0.00,Wunderground v.1.15,2013-03-21 04:09:00,
2013-03-21 00:19:00,21.5,19.3,29.47,SSW,207,10.0,11.0,91,0.00,,,0.00,Wunderground v.1.15,2013-03-21 04:19:00,
2013-03-21 00:30:00,21.5,19.3,29.47,SSW,211,10.0,10.0,91,0.00,,,0.00,Wunderground v.1.15,2013-03-21 04:30:00,
2013-03-21 00:39:00,21.5,19.3,29.47,SW,223,10.0,12.0,91,0.00,,,0.00,Wunderground v.1.15,2013-03-21 04:39:00,
2013-03-21 00:49:00,21.5,19.3,29.48,SW,215,11.0,11.0,91,0.00,,,0.00,Wunderground v.1.15,2013-03-21 04:49:00,
2013-03-21 01:00:00,21.5,19.0,29.48,SW,229,11.0,11.0,90,0.00,,,0.00,Wunderground v.1.15,2013-03-21 05:00:00,
2013-03-21 01:09:00,21.4,18.9,29.48,SW,225,10.0,13.0,90,0.00,,,0.00,Wunderground v.1.15,2013-03-21 05:09:00,
2013-03-21 01:19:00,21.3,18.8,29.49,SW,230,10.0,11.0,90,0.00,,,0.00,Wunderground v.1.15,2013-03-21 05:19:00,
2013-03-21 01:30:00,21.0,18.5,29.49,SW,227,9.0,10.0,90,0.00,,,0.00,Wunderground v.1.15,2013-03-21 05:30:00,
2013-03-21 01:39:00,21.0,18.5,29.49,SW,220,7.0,10.0,90,0.00,,,0.00,Wunderground v.1.15,2013-03-21 05:39:00,
2013-03-21 01:49:00,21.0,18.5,29.49,SW,229,7.0,7.0,90,0.00,,,0.00,Wunderground v.1.15,2013-03-21 05:49:00,
2013-03-21 02:00:00,20.8,18.3,29.49,SW,221,4.0,4.0,90,0.00,,,0.00,Wunderground v.1.15,2013-03-21 06:00:00,
2013-03-21 02:09:00,20.7,18.2,29.49,SW,225,6.0,7.0,90,0.00,,,0.00,Wunderground v.1.15,2013-03-21 06:09:00,
2013-03-21 02:19:00,20.5,18.0,29.50,SW,229,5.0,5.0,90,0.00,,,0.00,Wunderground v.1.15,2013-03-21 06:19:00,
2013-03-21 02:30:00,20.2,17.7,29.50,SSW,192,3.0,8.0,90,0.00,,,0.00,Wunderground v.1.15,2013-03-21 06:30:00,
2013-03-21 02:39:00,20.2,17.7,29.51,SW,219,5.0,7.0,90,0.00,,,0.00,Wunderground v.1.15,2013-03-21 06:39:00,
2013-03-21 02:49:00,20.0,17.3,29.50,SW,217,5.0,5.0,89,0.00,,,0.00,Wunderground v.1.15,2013-03-21 06:49:00,
2013-03-21 03:00:00,19.8,17.3,29.51,SW,227,5.0,5.0,90,0.00,,,0.00,Wunderground v.1.15,2013-03-21 07:00:00,
2013-03-21 03:09:00,19.7,17.2,29.51,SW,220,3.0,4.0,90,0.00,,,0.00,Wunderground v.1.15,2013-03-21 07:09:00,
2013-03-21 03:19:00,19.7,17.2,29.51,SW,215,5.0,6.0,90,0.00,,,0.00,Wunderground v.1.15,2013-03-21 07:19:00,
2013-03-21 03:30:00,19.8,17.3,29.52,WSW,245,6.0,6.0,90,0.00,,,0.00,Wunderground v.1.15,2013-03-21 07:30:00,
2013-03-21 03:39:00,19.7,17.2,29.52,WSW,238,2.0,2.0,90,0.00,,,0.00,Wunderground v.1.15,2013-03-21 07:39:00,
2013-03-21 03:49:00,18.8,16.4,29.52,WSW,238,0.0,0.0,90,0.00,,,0.00,Wunderground v.1.15,2013-03-21 07:49:00,
2013-03-21 04:00:00,18.2,15.8,29.52,South,172,0.0,0.0,90,0.00,,,0.00,Wunderground v.1.15,2013-03-21 08:00:00,
2013-03-21 04:09:00,18.0,15.8,29.52,SW,218,0.0,0.0,91,0.00,,,0.00,Wunderground v.1.15,2013-03-21 08:09:00,
2013-03-21 04:19:00,18.0,15.8,29.52,SW,218,0.0,0.0,91,0.00,,,0.00,Wunderground v.1.15,2013-03-21 08:19:00,
2013-03-21 04:30:00,18.1,15.9,29.53,SW,219,0.0,0.0,91,0.00,,,0.00,Wunderground v.1.15,2013-03-21 08:30:00,
2013-03-21 04:39:00,18.5,16.3,29.54,SW,223,1.0,1.0,91,0.00,,,0.00,Wunderground v.1.15,2013-03-21 08:39:00,
2013-03-21 04:49:00,18.1,15.9,29.54,SW,223,0.0,0.0,91,0.00,,,0.00,Wunderground v.1.15,2013-03-21 08:49:00,
2013-03-21 05:00:00,17.7,15.5,29.54,SW,223,0.0,0.0,91,0.00,,,0.00,Wunderground v.1.15,2013-03-21 09:00:00,
2013-03-21 05:09:00,17.4,15.0,29.55,SW,223,0.0,0.0,90,0.00,,,0.00,Wunderground v.1.15,2013-03-21 09:09:00,
2013-03-21 05:19:00,16.8,14.4,29.55,SW,223,0.0,0.0,90,0.00,,,0.00,Wunderground v.1.15,2013-03-21 09:19:00,
2013-03-21 05:30:00,16.0,13.6,29.55,SW,223,0.0,0.0,90,0.00,,,0.00,Wunderground v.1.15,2013-03-21 09:30:00,
2013-03-21 05:39:00,15.4,13.0,29.56,SW,223,0.0,0.0,90,0.00,,,0.00,Wunderground v.1.15,2013-03-21 09:39:00,
2013-03-21 05:49:00,14.9,12.5,29.56,SW,223,0.0,0.0,90,0.00,,,0.00,Wunderground v.1.15,2013-03-21 09:49:00,
2013-03-21 06:00:00,14.4,12.0,29.56,SW,223,0.0,0.0,90,0.00,,,0.00,Wunderground v.1.15,2013-03-21 10:00:00,
2013-03-21 06:09:00,14.1,12.0,29.56,SW,223,0.0,0.0,91,0.00,,,0.00,Wunderground v.1.15,2013-03-21 10:09:00,
2013-03-21 06:19:00,14.3,12.2,29.57,SW,223,0.0,0.0,91,0.00,,,0.00,Wunderground v.1.15,2013-03-21 10:19:00,
2013-03-21 06:30:00,14.4,12.3,29.57,SW,223,0.0,0.0,91,0.00,,,0.00,Wunderground v.1.15,2013-03-21 10:30:00,
2013-03-21 06:39:00,15.1,12.9,29.57,SW,223,0.0,0.0,91,0.00,,,0.00,Wunderground v.1.15,2013-03-21 10:39:00,
2013-03-21 06:49:00,15.4,13.2,29.58,SW,223,0.0,0.0,91,0.00,,,0.00,Wunderground v.1.15,2013-03-21 10:49:00,
2013-03-21 07:00:00,16.1,14.2,29.58,WSW,256,0.0,0.0,92,0.00,,,0.00,Wunderground v.1.15,2013-03-21 11:00:00,
2013-03-21 07:09:00,17.5,15.8,29.59,SW,236,0.0,0.0,93,0.00,,,0.00,Wunderground v.1.15,2013-03-21 11:09:00,
2013-03-21 07:19:00,18.2,16.3,29.59,WSW,250,0.0,0.0,92,0.00,,,0.00,Wunderground v.1.15,2013-03-21 11:19:00,
2013-03-21 07:30:00,18.5,16.6,29.59,WSW,251,0.0,0.0,92,0.00,,,0.00,Wunderground v.1.15,2013-03-21 11:30:00,
2013-03-21 07:39:00,18.6,16.7,29.60,WSW,251,0.0,0.0,92,0.00,,,0.00,Wunderground v.1.15,2013-03-21 11:39:00,
2013-03-21 07:49:00,18.7,16.8,29.60,WSW,250,0.0,0.0,92,0.00,,,0.00,Wunderground v.1.15,2013-03-21 11:49:00,
2013-03-21 08:00:00,18.9,17.0,29.60,WSW,250,0.0,0.0,92,0.00,,,0.00,Wunderground v.1.15,2013-03-21 12:00:00,
2013-03-21 08:09:00,19.4,17.5,29.60,SW,235,0.0,4.0,92,0.00,,,0.00,Wunderground v.1.15,2013-03-21 12:09:00,
2013-03-21 08:19:00,20.5,18.5,29.60,WSW,241,1.0,1.0,92,0.00,,,0.00,Wunderground v.1.15,2013-03-21 12:19:00,
2013-03-21 08:30:00,21.5,19.5,29.60,SW,218,1.0,1.0,92,0.00,,,0.00,Wunderground v.1.15,2013-03-21 12:30:00,
2013-03-21 08:39:00,22.3,20.6,29.60,SE,136,0.0,0.0,93,0.00,,,0.00,Wunderground v.1.15,2013-03-21 12:39:00,
2013-03-21 08:49:00,23.1,23.1,29.61,West,278,0.0,0.0,100,0.00,,,0.00,Wunderground v.1.15,2013-03-21 12:49:00,
2013-03-21 09:00:00,23.8,21.8,29.62,SSE,159,1.0,2.0,92,0.00,,,0.00,Wunderground v.1.15,2013-03-21 13:00:00,
2013-03-21 09:09:00,24.5,22.5,29.62,SSE,165,0.0,0.0,92,0.00,,,0.00,Wunderground v.1.15,2013-03-21 13:09:00,
2013-03-21 10:19:00,27.4,24.0,29.63,SW,224,8.0,10.0,87,0.00,,,0.00,Wunderground v.1.15,2013-03-21 14:19:00,
2013-03-21 10:30:00,27.4,24.0,29.63,SE,141,9.0,9.0,87,0.00,,,0.00,Wunderground v.1.15,2013-03-21 14:30:00,
2013-03-21 10:39:00,27.6,24.0,29.64,SW,229,10.0,10.0,86,0.00,,,0.00,Wunderground v.1.15,2013-03-21 14:39:00,
2013-03-21 10:49:00,28.0,24.4,29.64,SW,216,8.0,11.0,86,0.00,,,0.00,Wunderground v.1.15,2013-03-21 14:49:00,
2013-03-21 11:00:00,28.8,24.6,29.64,SW,222,10.0,10.0,84,0.00,,,0.01,Wunderground v.1.15,2013-03-21 15:00:00,
2013-03-21 11:09:00,28.8,24.3,29.64,SW,222,11.0,11.0,83,0.00,,,0.01,Wunderground v.1.15,2013-03-21 15:09:00,
2013-03-21 11:19:00,29.1,24.3,29.65,SW,232,8.0,8.0,82,0.04,,,0.02,Wunderground v.1.15,2013-03-21 15:19:00,
2013-03-21 11:30:00,29.4,24.6,29.65,SW,215,6.0,6.0,82,0.04,,,0.02,Wunderground v.1.15,2013-03-21 15:30:00,
2013-03-21 11:39:00,29.3,24.2,29.65,SW,233,6.0,12.0,81,0.00,,,0.02,Wunderground v.1.15,2013-03-21 15:39:00,
2013-03-21 11:49:00,29.7,24.9,29.66,WSW,238,5.0,9.0,82,0.00,,,0.03,Wunderground v.1.15,2013-03-21 15:49:00,
2013-03-21 12:00:00,29.7,25.7,29.66,WSW,252,4.0,4.0,85,0.00,,,0.03,Wunderground v.1.15,2013-03-21 16:00:00,
2013-03-21 12:09:00,29.9,24.8,29.66,SW,222,2.0,11.0,81,0.00,,,0.03,Wunderground v.1.15,2013-03-21 16:09:00,
2013-03-21 12:19:00,29.6,25.1,29.66,SW,229,5.0,5.0,83,0.00,,,0.03,Wunderground v.1.15,2013-03-21 16:19:00,
2013-03-21 12:30:00,29.8,25.0,29.66,SW,215,5.0,5.0,82,0.00,,,0.04,Wunderground v.1.15,2013-03-21 16:30:00,
2013-03-21 12:39:00,29.6,24.5,29.67,SW,234,5.0,5.0,81,0.00,,,0.04,Wunderground v.1.15,2013-03-21 16:39:00,
2013-03-21 12:49:00,29.6,24.5,29.67,SW,226,5.0,5.0,81,0.00,,,0.04,Wunderground v.1.15,2013-03-21 16:49:00,
2013-03-21 13:00:00,29.5,25.0,29.67,SW,225,5.0,5.0,83,0.00,,,0.04,Wunderground v.1.15,2013-03-21 17:00:00,
2013-03-21 13:10:00,29.7,25.2,29.67,SW,231,3.0,5.0,83,0.00,,,0.04,Wunderground v.1.15,2013-03-21 17:10:00,
2013-03-21 13:20:00,29.9,25.1,29.67,WSW,249,3.0,7.0,82,0.00,,,0.04,Wunderground v.1.15,2013-03-21 17:20:00,
2013-03-21 13:30:00,30.0,25.5,29.67,SSE,157,2.0,2.0,83,0.00,,,0.05,Wunderground v.1.15,2013-03-21 17:30:00,
2013-03-21 13:40:00,30.1,25.3,29.66,SW,236,1.0,3.0,82,0.00,,,0.05,Wunderground v.1.15,2013-03-21 17:40:00,
2013-03-21 13:50:00,29.8,25.6,29.67,WSW,238,3.0,3.0,84,0.00,,,0.05,Wunderground v.1.15,2013-03-21 17:50:00,
2013-03-21 14:00:00,30.2,25.7,29.66,WSW,254,1.0,1.0,83,0.00,,,0.05,Wunderground v.1.15,2013-03-21 18:00:00,
2013-03-21 14:10:00,30.2,25.7,29.66,WSW,241,1.0,6.0,83,0.00,,,0.05,Wunderground v.1.15,2013-03-21 18:10:00,
2013-03-21 14:20:00,29.6,25.1,29.66,SW,221,8.0,8.0,83,0.00,,,0.06,Wunderground v.1.15,2013-03-21 18:20:00,
2013-03-21 14:30:00,29.8,25.0,29.67,SW,225,4.0,7.0,82,0.00,,,0.06,Wunderground v.1.15,2013-03-21 18:30:00,
2013-03-21 14:40:00,29.9,24.2,29.66,SSW,202,3.0,4.0,79,0.00,,,0.06,Wunderground v.1.15,2013-03-21 18:40:00,
2013-03-21 14:50:00,30.1,24.1,29.67,SSW,207,6.0,6.0,78,0.00,,,0.06,Wunderground v.1.15,2013-03-21 18:50:00,
2013-03-21 15:00:00,30.0,24.3,29.67,SW,229,5.0,10.0,79,0.00,,,0.06,Wunderground v.1.15,2013-03-21 19:00:00,
2013-03-21 15:10:00,30.0,24.6,29.68,SW,221,7.0,7.0,80,0.00,,,0.06,Wunderground v.1.15,2013-03-21 19:10:00,
2013-03-21 15:20:00,30.6,24.2,29.68,SW,233,2.0,2.0,77,0.00,,,0.06,Wunderground v.1.15,2013-03-21 19:20:00,
2013-03-21 15:30:00,30.6,24.6,29.68,SW,227,1.0,1.0,78,0.00,,,0.06,Wunderground v.1.15,2013-03-21 19:30:00,
2013-03-21 15:40:00,30.6,25.2,29.69,WSW,242,0.0,0.0,80,0.00,,,0.06,Wunderground v.1.15,2013-03-21 19:40:00,
2013-03-21 15:50:00,31.3,25.8,29.69,SW,227,0.0,0.0,80,0.00,,,0.06,Wunderground v.1.15,2013-03-21 19:50:00,
2013-03-21 16:00:00,32.5,25.8,29.69,WSW,244,2.0,2.0,76,0.00,,,0.06,Wunderground v.1.15,2013-03-21 20:00:00,
2013-03-21 16:10:00,31.9,25.8,29.69,SSW,207,0.0,0.0,78,0.00,,,0.07,Wunderground v.1.15,2013-03-21 20:10:00,
2013-03-21 16:20:00,31.5,26.0,29.69,SE,134,0.0,0.0,80,0.00,,,0.07,Wunderground v.1.15,2013-03-21 20:20:00,
2013-03-21 16:30:00,31.1,25.3,29.68,WSW,246,0.0,0.0,79,0.00,,,0.07,Wunderground v.1.15,2013-03-21 20:30:00,
2013-03-21 16:40:00,30.7,24.7,29.68,WSW,242,0.0,0.0,78,0.00,,,0.07,Wunderground v.1.15,2013-03-21 20:40:00,
2013-03-21 16:50:00,30.7,25.0,29.68,WSW,242,0.0,0.0,79,0.00,,,0.07,Wunderground v.1.15,2013-03-21 20:50:00,
2013-03-21 17:00:00,30.4,25.0,29.68,WSW,242,0.0,0.0,80,0.00,,,0.08,Wunderground v.1.15,2013-03-21 21:00:00,
2013-03-21 17:10:00,31.9,25.8,29.68,SW,227,0.0,0.0,78,0.00,,,0.08,Wunderground v.1.15,2013-03-21 21:10:00,
2013-03-21 17:20:00,32.0,25.3,29.68,SW,219,1.0,4.0,76,0.00,,,0.08,Wunderground v.1.15,2013-03-21 21:20:00,
2013-03-21 17:30:00,29.8,23.2,29.68,SW,222,3.0,3.0,76,0.00,,,0.09,Wunderground v.1.15,2013-03-21 21:30:00,
2013-03-21 17:40:00,30.6,23.9,29.68,SW,222,0.0,0.0,76,0.00,,,0.09,Wunderground v.1.15,2013-03-21 21:40:00,
2013-03-21 17:50:00,30.6,23.6,29.68,SW,222,0.0,0.0,75,0.00,,,0.09,Wunderground v.1.15,2013-03-21 21:50:00,
2013-03-21 18:00:00,30.1,23.1,29.69,SW,222,0.0,0.0,75,0.00,,,0.10,Wunderground v.1.15,2013-03-21 22:00:00,
2013-03-21 18:10:00,29.0,23.6,29.69,SW,222,0.0,0.0,80,0.00,,,0.10,Wunderground v.1.15,2013-03-21 22:10:00,
2013-03-21 18:20:00,28.0,22.9,29.70,SW,222,0.0,0.0,81,0.00,,,0.10,Wunderground v.1.15,2013-03-21 22:20:00,
2013-03-21 18:30:00,27.0,22.2,29.70,SW,222,0.0,0.0,82,0.00,,,0.10,Wunderground v.1.15,2013-03-21 22:30:00,
2013-03-21 18:40:00,26.3,22.1,29.71,SW,222,0.0,0.0,84,0.00,,,0.10,Wunderground v.1.15,2013-03-21 22:40:00,
2013-03-21 18:50:00,25.5,21.1,29.70,SW,222,0.0,0.0,83,0.00,,,0.10,Wunderground v.1.15,2013-03-21 22:50:00,
2013-03-21 19:00:00,25.0,21.1,29.71,SW,222,0.0,0.0,85,0.00,,,0.10,Wunderground v.1.15,2013-03-21 23:00:00,
2013-03-21 19:10:00,24.6,20.5,29.70,SW,222,0.0,0.0,84,0.00,,,0.10,Wunderground v.1.15,2013-03-21 23:10:00,
2013-03-21 19:20:00,24.1,19.7,29.70,SW,222,0.0,0.0,83,0.00,,,0.10,Wunderground v.1.15,2013-03-21 23:20:00,
2013-03-21 19:30:00,24.2,20.1,29.70,SW,222,0.0,0.0,84,0.00,,,0.10,Wunderground v.1.15,2013-03-21 23:30:00,
2013-03-21 19:40:00,23.6,18.3,29.70,SW,221,1.0,1.0,80,0.00,,,0.10,Wunderground v.1.15,2013-03-21 23:40:00,
2013-03-21 19:50:00,23.3,19.5,29.70,SW,222,0.0,0.0,85,0.00,,,0.10,Wunderground v.1.15,2013-03-21 23:50:00,
2013-03-21 20:00:00,22.0,18.2,29.69,SW,222,0.0,0.0,85,0.00,,,0.10,Wunderground v.1.15,2013-03-22 00:00:00,
2013-03-21 20:10:00,23.1,19.0,29.68,SW,222,1.0,1.0,84,0.00,,,0.10,Wunderground v.1.15,2013-03-22 00:10:00,
2013-03-21 20:20:00,22.4,18.6,29.69,SW,222,0.0,0.0,85,0.00,,,0.10,Wunderground v.1.15,2013-03-22 00:20:00,
2013-03-21 20:30:00,21.8,18.5,29.69,SW,222,0.0,0.0,87,0.00,,,0.10,Wunderground v.1.15,2013-03-22 00:30:00,
2013-03-21 20:40:00,21.7,18.7,29.70,SW,221,0.0,0.0,88,0.00,,,0.10,Wunderground v.1.15,2013-03-22 00:40:00,
2013-03-21 20:50:00,21.5,18.5,29.69,SW,222,0.0,0.0,88,0.00,,,0.10,Wunderground v.1.15,2013-03-22 00:50:00,
2013-03-21 21:00:00,21.2,18.5,29.69,SW,221,0.0,0.0,89,0.00,,,0.10,Wunderground v.1.15,2013-03-22 01:00:00,
2013-03-21 21:10:00,21.3,18.8,29.69,SW,221,0.0,0.0,90,0.00,,,0.10,Wunderground v.1.15,2013-03-22 01:10:00,
2013-03-21 21:20:00,21.7,19.5,29.68,SW,222,0.0,0.0,91,0.00,,,0.10,Wunderground v.1.15,2013-03-22 01:20:00,
2013-03-21 21:30:00,21.4,18.9,29.68,SW,222,0.0,0.0,90,0.00,,,0.10,Wunderground v.1.15,2013-03-22 01:30:00,
2013-03-21 21:40:00,20.6,18.1,29.69,SW,222,0.0,0.0,90,0.00,,,0.10,Wunderground v.1.15,2013-03-22 01:40:00,
2013-03-21 21:50:00,20.0,17.8,29.68,SW,221,0.0,0.0,91,0.00,,,0.10,Wunderground v.1.15,2013-03-22 01:50:00,
2013-03-21 22:00:00,19.7,17.5,29.68,SW,221,0.0,0.0,91,0.00,,,0.10,Wunderground v.1.15,2013-03-22 02:00:00,
2013-03-21 22:10:00,20.3,18.3,29.68,SW,221,0.0,0.0,92,0.00,,,0.10,Wunderground v.1.15,2013-03-22 02:10:00,
2013-03-21 22:20:00,20.2,18.2,29.68,SW,221,0.0,0.0,92,0.00,,,0.10,Wunderground v.1.15,2013-03-22 02:20:00,
2013-03-21 22:30:00,20.6,18.9,29.68,SW,222,0.0,0.0,93,0.00,,,0.10,Wunderground v.1.15,2013-03-22 02:30:00,
2013-03-21 22:40:00,20.1,18.1,29.68,SW,222,0.0,0.0,92,0.00,,,0.10,Wunderground v.1.15,2013-03-22 02:40:00,
2013-03-21 22:50:00,19.6,17.7,29.68,SW,221,0.0,0.0,92,0.00,,,0.10,Wunderground v.1.15,2013-03-22 02:50:00,
2013-03-21 23:00:00,18.9,17.0,29.68,SW,221,0.0,0.0,92,0.00,,,0.10,Wunderground v.1.15,2013-03-22 03:00:00,
2013-03-21 23:10:00,18.1,15.9,29.67,SW,221,0.0,1.0,91,0.00,,,0.10,Wunderground v.1.15,2013-03-22 03:10:00,
2013-03-21 23:20:00,17.5,15.6,29.67,SW,221,0.0,0.0,92,0.00,,,0.10,Wunderground v.1.15,2013-03-22 03:20:00,
2013-03-21 23:30:00,17.2,15.3,29.67,SW,222,0.0,0.0,92,0.00,,,0.10,Wunderground v.1.15,2013-03-22 03:30:00,
2013-03-21 23:40:00,17.1,15.2,29.67,SW,222,0.0,0.0,92,0.00,,,0.10,Wunderground v.1.15,2013-03-22 03:40:00,
2013-03-21 23:50:00,16.7,14.8,29.67,SW,222,0.0,0.0,92,0.00,,,0.10,Wunderground v.1.15,2013-03-22 03:50:00,